Freedom, Ohio
Current Conditions -  °F | °C
As of 9:21 PM on Thursday 20 Nov 2014 (Local Time) from KPOV Reporting Station
Light Snow Light Snow  
Wind Chill: 11°   Ceiling: 2000
Heat Index: 22°   Visibility: 7mi
Dew Point: 16°   Wind: 10mph
Humidity: 78%   Direction: 250°WSW
Pressure: 30.08"   Gusts: 17mph
Location:  41.2385°N, 81.0761°W
Report Text: KPOV 210221Z AUTO 25009G15KT 7SM -SN SCT012 BKN020 OVC038 M06/M09 A3008 RMK AO2 T10581090
Loading
Personal Weather Stations






























Interactive Weather Map New forecast layout! Learn more

10-Day Weather Forecast

Advertisements
Track Severe Weather on mobile